Time,TemperatureF,DewpointF,PressureIn,WindDirection,WindDirectionDegrees,WindSpeedMPH,WindSpeedGustMPH,Humidity,HourlyPrecipIn,Conditions,Clouds,dailyrainin,SoftwareType,DateUTC
2013-05-22 00:44:00,55.0,49.9,29.85,WSW,248,0.0,-999.0,83,0.00,,,0.00,Wunderground v.1.15,2013-05-22 07:44:00,
2013-05-22 00:49:00,54.4,49.7,29.85,N/A,-737280,0.0,-999.0,84,0.00,,,0.00,Wunderground v.1.15,2013-05-22 07:49:00,
2013-05-22 00:54:00,54.4,49.7,29.85,N/A,-737280,0.0,-999.0,84,0.00,,,0.00,Wunderground v.1.15,2013-05-22 07:54:00,
2013-05-22 00:59:00,54.4,49.7,29.85,N/A,-737280,0.0,-999.0,84,0.00,,,0.00,Wunderground v.1.15,2013-05-22 07:59:00,
2013-05-22 01:04:00,54.4,49.7,29.85,N/A,-737280,0.0,-999.0,84,0.00,,,0.00,Wunderground v.1.15,2013-05-22 08:04:00,
2013-05-22 01:09:00,54.4,49.7,29.85,N/A,-737280,0.0,-999.0,84,0.00,,,0.00,Wunderground v.1.15,2013-05-22 08:09:00,
2013-05-22 01:14:00,54.4,49.7,29.85,N/A,-737280,0.0,-999.0,84,0.00,,,0.00,Wunderground v.1.15,2013-05-22 08:14:00,
2013-05-22 01:19:00,54.1,50.0,29.84,WSW,248,0.0,-999.0,86,0.00,,,0.00,Wunderground v.1.15,2013-05-22 08:19:00,
2013-05-22 01:24:00,54.1,50.0,29.84,WSW,248,0.0,-999.0,86,0.00,,,0.00,Wunderground v.1.15,2013-05-22 08:24:00,
2013-05-22 01:29:00,54.1,50.0,29.84,WSW,248,0.0,-999.0,86,0.00,,,0.00,Wunderground v.1.15,2013-05-22 08:29:00,
2013-05-22 01:34:00,54.1,50.0,29.84,WSW,248,0.0,-999.0,86,0.00,,,0.00,Wunderground v.1.15,2013-05-22 08:34:00,
2013-05-22 01:39:00,54.1,50.0,29.84,WSW,248,0.0,-999.0,86,0.00,,,0.00,Wunderground v.1.15,2013-05-22 08:39:00,
2013-05-22 01:44:00,54.1,50.0,29.84,WSW,248,0.0,-999.0,86,0.00,,,0.00,Wunderground v.1.15,2013-05-22 08:44:00,
2013-05-22 01:49:00,54.2,50.4,29.84,SSE,158,0.0,-999.0,87,0.00,,,0.00,Wunderground v.1.15,2013-05-22 08:49:00,
2013-05-22 01:54:00,54.2,50.4,29.84,SSE,158,0.0,-999.0,87,0.00,,,0.00,Wunderground v.1.15,2013-05-22 08:54:00,
2013-05-22 01:59:00,54.2,50.4,29.84,SSE,158,0.0,-999.0,87,0.00,,,0.00,Wunderground v.1.15,2013-05-22 08:59:00,
2013-05-22 02:04:00,54.2,50.4,29.84,SSE,158,0.0,-999.0,87,0.00,,,0.00,Wunderground v.1.15,2013-05-22 09:04:00,
2013-05-22 02:09:00,54.2,50.4,29.84,SSE,158,0.0,-999.0,87,0.00,,,0.00,Wunderground v.1.15,2013-05-22 09:09:00,
2013-05-22 02:14:00,54.2,50.4,29.84,SSE,158,0.0,-999.0,87,0.00,,,0.00,Wunderground v.1.15,2013-05-22 09:14:00,
2013-05-22 02:19:00,55.5,51.1,29.83,WSW,248,1.0,-999.0,85,0.00,,,0.00,Wunderground v.1.15,2013-05-22 09:19:00,
2013-05-22 02:24:00,55.5,51.1,29.83,WSW,248,1.0,-999.0,85,0.00,,,0.00,Wunderground v.1.15,2013-05-22 09:24:00,
2013-05-22 02:29:00,55.5,51.1,29.83,WSW,248,1.0,-999.0,85,0.00,,,0.00,Wunderground v.1.15,2013-05-22 09:29:00,
2013-05-22 02:34:00,55.5,51.1,29.83,WSW,248,1.0,-999.0,85,0.00,,,0.00,Wunderground v.1.15,2013-05-22 09:34:00,
2013-05-22 02:39:00,55.5,51.1,29.83,WSW,248,1.0,-999.0,85,0.00,,,0.00,Wunderground v.1.15,2013-05-22 09:39:00,
2013-05-22 02:44:00,55.5,51.1,29.83,WSW,248,1.0,-999.0,85,0.00,,,0.00,Wunderground v.1.15,2013-05-22 09:44:00,
2013-05-22 02:49:00,56.4,51.3,29.83,WSW,248,0.0,-999.0,83,0.00,,,0.00,Wunderground v.1.15,2013-05-22 09:49:00,
2013-05-22 02:54:00,56.4,51.3,29.83,WSW,248,0.0,-999.0,83,0.00,,,0.00,Wunderground v.1.15,2013-05-22 09:54:00,
2013-05-22 02:59:00,56.4,51.3,29.83,WSW,248,0.0,-999.0,83,0.00,,,0.00,Wunderground v.1.15,2013-05-22 09:59:00,
2013-05-22 03:04:00,56.4,51.3,29.83,WSW,248,0.0,-999.0,83,0.00,,,0.00,Wunderground v.1.15,2013-05-22 10:04:00,
2013-05-22 03:09:00,56.4,51.3,29.83,WSW,248,0.0,-999.0,83,0.00,,,0.00,Wunderground v.1.15,2013-05-22 10:09:00,
2013-05-22 03:14:00,56.4,51.3,29.83,WSW,248,0.0,-999.0,83,0.00,,,0.00,Wunderground v.1.15,2013-05-22 10:14:00,
2013-05-22 03:19:00,56.1,51.0,29.82,WSW,248,1.0,-999.0,83,0.00,,,0.00,Wunderground v.1.15,2013-05-22 10:19:00,
2013-05-22 03:24:00,56.1,51.0,29.82,WSW,248,1.0,-999.0,83,0.00,,,0.00,Wunderground v.1.15,2013-05-22 10:24:00,
2013-05-22 03:29:00,56.1,51.0,29.82,WSW,248,1.0,-999.0,83,0.00,,,0.00,Wunderground v.1.15,2013-05-22 10:29:00,
2013-05-22 03:44:00,56.2,50.8,29.82,WSW,250,1.0,1.0,82,0.00,,,0.00,Wunderground v.1.15,2013-05-22 10:44:00,
2013-05-22 03:50:00,56.2,51.1,29.82,WSW,256,0.0,1.0,83,0.00,,,0.00,Wunderground v.1.15,2013-05-22 10:50:00,
2013-05-22 03:56:00,56.3,50.9,29.82,WSW,241,0.0,0.0,82,0.00,,,0.00,Wunderground v.1.15,2013-05-22 10:56:00,
2013-05-22 04:02:00,56.5,51.1,29.82,WSW,248,0.0,1.0,82,0.00,,,0.00,Wunderground v.1.15,2013-05-22 11:02:00,
2013-05-22 04:08:00,56.6,51.2,29.82,WSW,248,0.0,1.0,82,0.00,,,0.00,Wunderground v.1.15,2013-05-22 11:08:00,
2013-05-22 04:14:00,56.6,50.8,29.82,WSW,248,0.0,0.0,81,0.00,,,0.00,Wunderground v.1.15,2013-05-22 11:14:00,
2013-05-22 04:20:00,56.6,50.5,29.82,SW,218,0.0,0.0,80,0.00,,,0.00,Wunderground v.1.15,2013-05-22 11:20:00,
2013-05-22 04:26:00,56.6,50.8,29.82,WSW,240,0.0,1.0,81,0.00,,,0.00,Wunderground v.1.15,2013-05-22 11:26:00,
2013-05-22 04:32:00,56.5,50.7,29.82,WSW,238,0.0,4.0,81,0.00,,,0.00,Wunderground v.1.15,2013-05-22 11:32:00,
2013-05-22 04:38:00,56.5,51.1,29.82,WSW,237,0.0,4.0,82,0.00,,,0.00,Wunderground v.1.15,2013-05-22 11:38:00,
2013-05-22 04:44:00,56.5,51.1,29.82,WSW,248,0.0,4.0,82,0.00,,,0.00,Wunderground v.1.15,2013-05-22 11:44:00,
2013-05-22 04:50:00,56.5,51.1,29.82,West,263,0.0,4.0,82,0.00,,,0.00,Wunderground v.1.15,2013-05-22 11:50:00,
2013-05-22 04:56:00,56.6,51.2,29.82,SSE,166,0.0,4.0,82,0.00,,,0.00,Wunderground v.1.15,2013-05-22 11:56:00,
2013-05-22 05:02:00,56.5,51.1,29.82,SSE,166,0.0,0.0,82,0.00,,,0.00,Wunderground v.1.15,2013-05-22 12:02:00,
2013-05-22 05:08:00,56.6,51.2,29.83,SSE,166,0.0,0.0,82,0.00,,,0.00,Wunderground v.1.15,2013-05-22 12:08:00,
2013-05-22 05:14:00,56.6,51.2,29.82,SSE,166,0.0,0.0,82,0.00,,,0.00,Wunderground v.1.15,2013-05-22 12:14:00,
2013-05-22 05:20:00,56.6,51.2,29.82,South,173,0.0,0.0,82,0.00,,,0.00,Wunderground v.1.15,2013-05-22 12:20:00,
2013-05-22 05:26:00,56.5,51.1,29.82,WSW,245,0.0,0.0,82,0.00,,,0.00,Wunderground v.1.15,2013-05-22 12:26:00,
2013-05-22 05:32:00,56.6,51.2,29.82,WSW,245,0.0,2.0,82,0.00,,,0.00,Wunderground v.1.15,2013-05-22 12:32:00,
2013-05-22 05:38:00,56.6,50.8,29.82,WSW,246,0.0,2.0,81,0.00,,,0.00,Wunderground v.1.15,2013-05-22 12:38:00,
2013-05-22 05:44:00,56.6,50.8,29.82,WSW,245,0.0,2.0,81,0.00,,,0.00,Wunderground v.1.15,2013-05-22 12:44:00,
2013-05-22 05:50:00,56.7,50.9,29.82,WSW,245,0.0,2.0,81,0.00,,,0.00,Wunderground v.1.15,2013-05-22 12:50:00,
2013-05-22 05:56:00,56.7,50.6,29.82,WSW,250,0.0,2.0,80,0.00,,,0.00,Wunderground v.1.15,2013-05-22 12:56:00,
2013-05-22 06:02:00,56.7,50.6,29.82,WSW,239,0.0,0.0,80,0.00,,,0.00,Wunderground v.1.15,2013-05-22 13:02:00,
2013-05-22 06:08:00,56.7,50.9,29.82,WSW,239,0.0,0.0,81,0.00,,,0.00,Wunderground v.1.15,2013-05-22 13:08:00,
2013-05-22 06:14:00,56.8,51.0,29.83,WSW,238,0.0,0.0,81,0.00,,,0.00,Wunderground v.1.15,2013-05-22 13:14:00,
2013-05-22 06:20:00,56.8,51.0,29.83,WSW,243,0.0,0.0,81,0.00,,,0.00,Wunderground v.1.15,2013-05-22 13:20:00,
2013-05-22 06:26:00,56.8,51.0,29.83,WSW,243,0.0,0.0,81,0.00,,,0.00,Wunderground v.1.15,2013-05-22 13:26:00,
2013-05-22 06:32:00,56.9,51.5,29.83,WSW,242,0.0,0.0,82,0.00,,,0.00,Wunderground v.1.15,2013-05-22 13:32:00,
2013-05-22 06:38:00,56.9,51.5,29.83,WNW,291,0.0,0.0,82,0.00,,,0.00,Wunderground v.1.15,2013-05-22 13:38:00,
2013-05-22 06:44:00,56.9,51.5,29.84,West,266,0.0,1.0,82,0.00,,,0.00,Wunderground v.1.15,2013-05-22 13:44:00,
2013-05-22 06:50:00,56.5,51.1,29.84,SW,229,1.0,1.0,82,0.00,,,0.00,Wunderground v.1.15,2013-05-22 13:50:00,
2013-05-22 06:56:00,56.3,51.2,29.85,WSW,237,1.0,2.0,83,0.00,,,0.00,Wunderground v.1.15,2013-05-22 13:56:00,
2013-05-22 07:02:00,56.0,51.2,29.85,WSW,253,1.0,1.0,84,0.00,,,0.00,Wunderground v.1.15,2013-05-22 14:02:00,
2013-05-22 07:08:00,56.0,51.2,29.85,WSW,238,0.0,1.0,84,0.00,,,0.00,Wunderground v.1.15,2013-05-22 14:08:00,
2013-05-22 07:14:00,56.2,51.4,29.85,SW,233,0.0,0.0,84,0.00,,,0.00,Wunderground v.1.15,2013-05-22 14:14:00,
2013-05-22 07:20:00,56.5,51.7,29.85,SW,236,0.0,0.0,84,0.00,,,0.00,Wunderground v.1.15,2013-05-22 14:20:00,
2013-05-22 07:26:00,56.8,52.0,29.85,WSW,256,0.0,0.0,84,0.00,,,0.00,Wunderground v.1.15,2013-05-22 14:26:00,
2013-05-22 07:32:00,57.2,52.1,29.85,WSW,249,0.0,1.0,83,0.00,,,0.00,Wunderground v.1.15,2013-05-22 14:32:00,
2013-05-22 07:38:00,57.4,51.9,29.85,West,264,0.0,1.0,82,0.00,,,0.00,Wunderground v.1.15,2013-05-22 14:38:00,
2013-05-22 07:44:00,57.7,52.2,29.85,West,264,0.0,1.0,82,0.00,,,0.00,Wunderground v.1.15,2013-05-22 14:44:00,
2013-05-22 07:50:00,58.0,52.5,29.85,West,265,0.0,1.0,82,0.00,,,0.00,Wunderground v.1.15,2013-05-22 14:50:00,
2013-05-22 07:56:00,58.4,52.6,29.85,NNW,339,0.0,1.0,81,0.00,,,0.00,Wunderground v.1.15,2013-05-22 14:56:00,
2013-05-22 08:02:00,59.0,53.2,29.85,NW,317,0.0,0.0,81,0.00,,,0.00,Wunderground v.1.15,2013-05-22 15:02:00,
2013-05-22 08:08:00,59.5,53.3,29.85,NNE,16,0.0,0.0,80,0.00,,,0.00,Wunderground v.1.15,2013-05-22 15:08:00,
2013-05-22 08:14:00,60.0,53.1,29.85,NNE,15,0.0,0.0,78,0.00,,,0.00,Wunderground v.1.15,2013-05-22 15:14:00,
2013-05-22 08:20:00,60.4,53.2,29.86,NNE,15,0.0,0.0,77,0.00,,,0.00,Wunderground v.1.15,2013-05-22 15:20:00,
2013-05-22 08:26:00,60.9,53.6,29.85,North,354,0.0,0.0,77,0.00,,,0.00,Wunderground v.1.15,2013-05-22 15:26:00,
2013-05-22 08:32:00,61.2,53.6,29.86,WSW,242,0.0,2.0,76,0.00,,,0.00,Wunderground v.1.15,2013-05-22 15:32:00,
2013-05-22 08:38:00,61.7,54.1,29.86,North,6,0.0,2.0,76,0.00,,,0.00,Wunderground v.1.15,2013-05-22 15:38:00,
2013-05-22 08:44:00,62.0,54.3,29.85,South,187,0.0,2.0,76,0.00,,,0.00,Wunderground v.1.15,2013-05-22 15:44:00,
2013-05-22 08:50:00,62.3,53.9,29.85,WSW,243,0.0,2.0,74,0.00,,,0.00,Wunderground v.1.15,2013-05-22 15:50:00,
2013-05-22 08:56:00,62.7,54.7,29.85,SW,236,0.0,2.0,75,0.00,,,0.00,Wunderground v.1.15,2013-05-22 15:56:00,
2013-05-22 09:02:00,63.5,55.1,29.85,West,259,0.0,0.0,74,0.00,,,0.00,Wunderground v.1.15,2013-05-22 16:02:00,
2013-05-22 09:08:00,64.3,55.5,29.85,NW,326,0.0,1.0,73,0.00,,,0.00,Wunderground v.1.15,2013-05-22 16:08:00,
2013-05-22 09:14:00,64.8,55.6,29.85,NNW,341,0.0,2.0,72,0.00,,,0.00,Wunderground v.1.15,2013-05-22 16:14:00,
2013-05-22 09:20:00,65.0,55.8,29.85,NNW,329,1.0,1.0,72,0.00,,,0.00,Wunderground v.1.15,2013-05-22 16:20:00,
2013-05-22 09:26:00,65.6,55.9,29.85,WSW,247,0.0,2.0,71,0.00,,,0.00,Wunderground v.1.15,2013-05-22 16:26:00,
2013-05-22 09:32:00,65.9,56.2,29.85,NNW,342,1.0,2.0,71,0.00,,,0.00,Wunderground v.1.15,2013-05-22 16:32:00,
2013-05-22 09:38:00,66.9,56.4,29.85,ENE,71,0.0,2.0,69,0.00,,,0.00,Wunderground v.1.15,2013-05-22 16:38:00,
2013-05-22 09:44:00,67.3,56.0,29.85,WSW,238,0.0,2.0,67,0.00,,,0.00,Wunderground v.1.15,2013-05-22 16:44:00,
2013-05-22 09:50:00,66.8,55.5,29.85,North,356,1.0,1.0,67,0.00,,,0.00,Wunderground v.1.15,2013-05-22 16:50:00,
2013-05-22 09:56:00,66.9,56.0,29.85,WSW,255,2.0,2.0,68,0.00,,,0.00,Wunderground v.1.15,2013-05-22 16:56:00,
2013-05-22 10:02:00,68.3,56.9,29.84,WNW,284,1.0,2.0,67,0.00,,,0.00,Wunderground v.1.15,2013-05-22 17:02:00,
2013-05-22 10:08:00,68.5,56.7,29.85,WSW,240,1.0,3.0,66,0.00,,,0.00,Wunderground v.1.15,2013-05-22 17:08:00,
2013-05-22 10:14:00,68.1,56.7,29.85,NNW,333,2.0,2.0,67,0.00,,,0.00,Wunderground v.1.15,2013-05-22 17:14:00,
2013-05-22 10:20:00,68.6,57.2,29.84,SSW,205,2.0,3.0,67,0.00,,,0.00,Wunderground v.1.15,2013-05-22 17:20:00,
2013-05-22 10:26:00,69.2,56.9,29.84,West,276,1.0,3.0,65,0.00,,,0.00,Wunderground v.1.15,2013-05-22 17:26:00,